Etusivu
METAR-TAF:

METAR-TAF

Lentoasemat :

Pamplona, Espanja

Leveyspiiri: 42-46N, Pituuspiiri: 001-38W, korkeus merenpinnasta: 459 m

Tämänhetkinen sää

Tämä raportti tehtiin 29 minuuttia sitten, kello 19.30 UTC
Tuuli 2 kn etelästä/lounaasta
Lämpötila 27°C
Kosteus 32%
Ilmanpaine 1018 hPa
Näkyvyys 10 km tai enemmän
ei pilviä alle 1500 m:ssä eikä cumulonimbus-pilviä

METAR: LEPP 231930Z 20002KT CAVOK 27/09 Q1018

Aika: 21:59 (19:59 UTC)

Sääennuste

Tämä raportti tehtiin 5 tuntia ja 59 minuuttia sitten, kello 14.00 UTC
Ennuste voimassa 23. päivästä klo 15 UTC - 24. päivään klo 15 UTC
Tuuli 5 kn etelästä
Näkyvyys 10 km tai enemmän
ei pilviä alle 1500 m:ssä eikä cumulonimbus-pilviä

TAF: LEPP 231400Z 2315/2415 18005KT CAVOK TX33/2315Z TN14/2406Z

Säähavainnot ja -ennusteet yli 4000 lentoasemalta (METAR- ja TAF-raportit).

Käytössä olevat sääasemat on merkitty karttaan keltaisilla ja punaisilla pisteillä.

Aseta hiiri pisteen päälle nähdäksesi sääaseman nimen.

Klikkaa sitten nähdäksesi säähavainnot ja -ennusteet.

Kartan vaihtaminen: klikkaa mustalla rastilla varustettuja vihreitä pisteitä, niin voit zoomata sisään; viivalla varustettua vihreää pistettä, niin voit zoomata ulos tai vihreitä nuolia, niin pääset viereisille kartoille.


METAR-TAF: